createdAt,value
2022-08-10T00:01:57.833Z,36.30
2022-08-10T00:04:27.309Z,36.04
2022-08-10T00:06:57.223Z,36.22
2022-08-10T00:09:26.997Z,36.49
2022-08-10T00:11:56.370Z,37.00
2022-08-10T00:14:25.722Z,36.58
2022-08-10T00:16:55.123Z,36.59
2022-08-10T00:19:27.092Z,37.01
2022-08-10T00:22:17.025Z,37.07
2022-08-10T00:24:46.534Z,37.06
2022-08-10T00:27:52.819Z,37.37
2022-08-10T00:30:05.231Z,37.85
2022-08-10T00:32:35.035Z,37.57
2022-08-10T00:35:08.521Z,37.37
2022-08-10T00:37:38.032Z,37.69
2022-08-10T00:40:08.147Z,37.53
2022-08-10T00:42:37.567Z,38.08
2022-08-10T00:45:07.332Z,38.39
2022-08-10T00:47:37.863Z,38.13
2022-08-10T00:50:10.859Z,38.47
2022-08-10T00:52:41.116Z,38.42
2022-08-10T00:55:10.942Z,38.90
2022-08-10T00:57:41.217Z,38.62
2022-08-10T01:00:11.733Z,38.84
2022-08-10T01:02:41.486Z,39.33
2022-08-10T01:05:14.812Z,39.38
2022-08-10T01:08:07.927Z,39.95
2022-08-10T01:10:41.551Z,39.74
2022-08-10T01:13:13.932Z,40.06
2022-08-10T01:15:50.705Z,40.33
2022-08-10T01:18:24.269Z,40.21
2022-08-10T01:21:03.394Z,40.45
2022-08-10T01:23:51.160Z,40.45
2022-08-10T01:26:31.573Z,40.41
2022-08-10T01:29:09.525Z,40.25
2022-08-10T01:31:44.207Z,40.52
2022-08-10T01:34:15.934Z,40.17
2022-08-10T01:36:48.913Z,40.44
2022-08-10T01:39:21.940Z,40.30
2022-08-10T01:41:53.744Z,40.61
2022-08-10T01:44:32.076Z,40.81
2022-08-10T01:47:22.089Z,40.76
2022-08-10T01:49:53.184Z,41.31
2022-08-10T01:52:23.519Z,40.89
2022-08-10T01:54:56.058Z,41.68
2022-08-10T01:57:27.109Z,41.42
2022-08-10T02:00:00.648Z,41.58
2022-08-10T02:02:38.669Z,41.63
2022-08-10T02:05:09.163Z,41.27
2022-08-10T02:07:39.994Z,41.81
2022-08-10T02:10:12.377Z,41.85
2022-08-10T02:12:43.649Z,41.67
2022-08-10T02:15:15.486Z,42.19
2022-08-10T02:17:59.747Z,41.98
2022-08-10T02:20:35.152Z,42.55
2022-08-10T02:23:08.590Z,42.21
2022-08-10T02:25:40.772Z,42.35
2022-08-10T02:28:30.558Z,42.58
2022-08-10T02:31:01.850Z,42.53
2022-08-10T02:33:37.330Z,42.71
2022-08-10T02:36:08.652Z,42.85
2022-08-10T02:38:57.594Z,43.10
2022-08-10T02:42:18.763Z,43.29
2022-08-10T02:45:20.482Z,43.35
2022-08-10T02:47:18.414Z,43.01
2022-08-10T02:49:52.614Z,43.20
2022-08-10T02:52:24.116Z,43.75
2022-08-10T02:54:55.222Z,43.63
2022-08-10T02:57:27.580Z,43.77
2022-08-10T02:59:58.561Z,43.43
2022-08-10T03:02:30.546Z,43.98
2022-08-10T03:05:04.337Z,43.80
2022-08-10T03:07:43.495Z,43.48
2022-08-10T03:10:16.597Z,44.06
2022-08-10T03:12:47.161Z,44.08
2022-08-10T03:15:17.425Z,44.51
2022-08-10T03:17:58.076Z,44.25
2022-08-10T03:20:37.993Z,44.66
2022-08-10T03:23:10.645Z,44.52
2022-08-10T03:25:40.210Z,44.45
2022-08-10T03:28:10.034Z,44.42
2022-08-10T03:30:47.615Z,44.60
2022-08-10T03:33:18.208Z,45.32
2022-08-10T03:36:43.834Z,45.62
2022-08-10T03:38:40.623Z,45.55
2022-08-10T03:41:15.809Z,45.41
2022-08-10T03:43:47.734Z,45.30
2022-08-10T03:46:18.390Z,45.47
2022-08-10T03:48:50.067Z,45.75
2022-08-10T03:51:22.692Z,46.21
2022-08-10T03:54:05.038Z,45.70
2022-08-10T03:56:40.459Z,46.16
2022-08-10T03:59:11.292Z,46.28
2022-08-10T04:02:45.762Z,46.35
2022-08-10T04:04:30.442Z,45.91
2022-08-10T04:07:03.426Z,46.31
2022-08-10T04:09:56.023Z,45.94
2022-08-10T04:12:23.288Z,46.47
2022-08-10T04:14:53.679Z,46.10
2022-08-10T04:17:56.888Z,46.89
2022-08-10T04:20:16.402Z,46.76
2022-08-10T04:22:48.870Z,46.52
2022-08-10T04:25:18.828Z,46.60
2022-08-10T04:27:48.648Z,46.44
2022-08-10T04:30:18.325Z,46.55
2022-08-10T04:32:49.596Z,46.46
2022-08-10T04:35:21.643Z,46.66
2022-08-10T04:37:54.213Z,46.65
2022-08-10T04:40:29.592Z,46.84
2022-08-10T04:43:12.297Z,46.90
2022-08-10T04:45:48.536Z,47.16
2022-08-10T04:48:40.839Z,46.90
2022-08-10T04:51:11.152Z,46.97
2022-08-10T04:54:04.080Z,47.31
2022-08-10T04:56:36.456Z,46.84
2022-08-10T04:59:06.061Z,46.91
2022-08-10T05:01:37.748Z,46.61
2022-08-10T05:04:34.628Z,46.53
2022-08-10T05:07:16.611Z,47.13
2022-08-10T05:10:04.954Z,46.70
2022-08-10T05:12:37.407Z,46.64
2022-08-10T05:15:09.098Z,46.13
2022-08-10T05:17:38.976Z,46.30
2022-08-10T05:20:09.595Z,46.57
2022-08-10T05:22:40.134Z,46.52
2022-08-10T05:25:13.493Z,46.16
2022-08-10T05:27:43.679Z,46.29
2022-08-10T05:30:15.132Z,46.03
2022-08-10T05:32:55.593Z,45.91
2022-08-10T05:35:27.673Z,45.50
2022-08-10T05:38:12.330Z,46.07
2022-08-10T05:40:48.073Z,45.39
2022-08-10T05:43:21.290Z,45.39
2022-08-10T05:46:19.999Z,44.68
2022-08-10T05:48:59.473Z,44.32
2022-08-10T05:51:30.753Z,43.63
2022-08-10T05:54:06.047Z,43.59
2022-08-10T05:56:56.016Z,43.51
2022-08-10T06:00:29.450Z,42.97
2022-08-10T06:02:30.988Z,42.66
2022-08-10T06:05:07.335Z,42.26
2022-08-10T06:07:38.064Z,42.69
2022-08-10T06:10:10.310Z,42.45
2022-08-10T06:12:54.203Z,42.08
2022-08-10T06:15:50.607Z,41.98
2022-08-10T06:18:14.673Z,41.94
2022-08-10T06:20:44.720Z,42.01
2022-08-10T06:23:14.819Z,41.60
2022-08-10T06:26:09.752Z,41.70
2022-08-10T06:28:37.884Z,41.22
2022-08-10T06:31:08.202Z,40.92
2022-08-10T06:33:39.370Z,40.80
2022-08-10T06:36:10.215Z,41.27
2022-08-10T06:38:40.824Z,40.72
2022-08-10T06:41:13.183Z,40.58
2022-08-10T06:43:50.322Z,40.41
2022-08-10T06:46:22.441Z,40.33
2022-08-10T06:48:53.342Z,40.47
2022-08-10T06:51:24.651Z,39.77
2022-08-10T06:53:56.158Z,39.88
2022-08-10T06:56:38.210Z,39.61
2022-08-10T06:59:22.083Z,40.32
2022-08-10T07:01:55.526Z,39.74
2022-08-10T07:04:33.044Z,39.15
2022-08-10T07:07:04.774Z,39.21
2022-08-10T07:09:35.243Z,38.94
2022-08-10T07:12:07.528Z,38.86
2022-08-10T07:14:43.651Z,39.05
2022-08-10T07:17:15.607Z,38.35
2022-08-10T07:19:50.108Z,37.91
2022-08-10T07:23:08.362Z,37.28
2022-08-10T07:25:13.852Z,37.22
2022-08-10T07:27:59.195Z,36.87
2022-08-10T07:30:35.016Z,36.81
2022-08-10T07:33:05.145Z,36.56
2022-08-10T07:35:42.066Z,36.49
2022-08-10T07:38:14.276Z,35.54
2022-08-10T07:40:45.041Z,34.78
2022-08-10T07:43:15.709Z,35.46
2022-08-10T07:45:48.848Z,35.11
2022-08-10T07:48:19.655Z,34.42
2022-08-10T07:50:49.956Z,34.56
2022-08-10T07:53:21.875Z,34.24
2022-08-10T07:56:04.330Z,34.26
2022-08-10T07:58:38.549Z,33.76
2022-08-10T08:01:10.692Z,33.43
2022-08-10T08:03:40.782Z,33.72
2022-08-10T08:06:11.875Z,33.51
2022-08-10T08:08:43.864Z,33.17
2022-08-10T08:11:25.640Z,32.70
2022-08-10T08:13:56.760Z,32.66
2022-08-10T08:16:29.432Z,32.29
2022-08-10T08:24:09.713Z,32.35
2022-08-10T08:24:40.546Z,31.95
2022-08-10T08:27:10.434Z,32.27
2022-08-10T08:29:41.890Z,31.62
2022-08-10T08:32:14.526Z,32.01
2022-08-10T08:34:45.193Z,31.51
2022-08-10T08:38:33.325Z,31.74
2022-08-10T08:40:08.121Z,31.54
2022-08-10T08:42:52.325Z,31.02
2022-08-10T08:45:26.053Z,31.30
2022-08-10T08:48:11.172Z,31.15
2022-08-10T08:50:47.677Z,30.86
2022-08-10T08:54:01.901Z,30.99
2022-08-10T08:56:25.005Z,31.27
2022-08-10T08:59:02.643Z,30.40
2022-08-10T09:01:41.631Z,30.06
2022-08-10T09:04:21.280Z,30.38
2022-08-10T09:06:57.553Z,29.81
2022-08-10T09:09:35.451Z,29.52
2022-08-10T09:12:14.391Z,28.99
2022-08-10T09:14:49.222Z,28.13
2022-08-10T09:17:21.577Z,27.22
2022-08-10T09:19:57.331Z,27.77
2022-08-10T09:22:29.605Z,27.44
2022-08-10T09:25:00.730Z,26.75
2022-08-10T09:27:35.615Z,26.80
2022-08-10T09:30:10.553Z,26.79
2022-08-10T09:36:15.357Z,27.07
2022-08-10T09:36:26.578Z,26.36
2022-08-10T09:38:37.344Z,26.73
2022-08-10T09:41:13.275Z,26.88
2022-08-10T09:43:50.946Z,26.47
2022-08-10T09:46:27.713Z,25.85
2022-08-10T09:49:01.520Z,26.18
2022-08-10T09:51:46.742Z,26.22
2022-08-10T09:54:29.978Z,26.03
2022-08-10T09:57:44.946Z,26.04
2022-08-10T10:00:02.173Z,25.62
2022-08-10T10:02:39.234Z,25.64
2022-08-10T10:05:13.604Z,25.25
2022-08-10T10:07:48.769Z,25.58
2022-08-10T10:10:22.094Z,26.00
2022-08-10T10:12:53.838Z,26.01
2022-08-10T10:15:28.335Z,25.47
2022-08-10T10:18:06.206Z,26.09
2022-08-10T10:20:38.231Z,26.06
2022-08-10T10:23:16.510Z,26.38
2022-08-10T10:25:50.706Z,26.28
2022-08-10T10:29:06.852Z,26.99
2022-08-10T16:18:15.091Z,17.58
2022-08-10T16:20:55.162Z,17.72
2022-08-10T16:23:26.630Z,17.77
2022-08-10T16:26:03.034Z,17.75
2022-08-10T16:28:36.931Z,17.48
2022-08-10T16:31:08.334Z,17.87
2022-08-10T16:33:53.386Z,17.66
2022-08-10T16:36:24.773Z,17.18
2022-08-10T16:38:58.046Z,17.63
2022-08-10T16:42:04.081Z,17.39
2022-08-10T16:44:20.256Z,17.22
2022-08-10T16:46:50.790Z,17.56
2022-08-10T16:49:23.722Z,17.54
2022-08-10T16:51:54.314Z,17.40
2022-08-10T16:54:27.619Z,17.29
2022-08-10T16:57:02.001Z,17.09
2022-08-10T16:59:33.345Z,17.39
2022-08-10T17:02:04.314Z,17.23
2022-08-10T17:04:36.929Z,16.94
2022-08-10T17:07:08.301Z,16.82
2022-08-10T17:09:40.190Z,16.91
2022-08-10T17:12:11.875Z,16.82
2022-08-10T17:14:42.394Z,17.17
2022-08-10T17:17:15.302Z,17.06
2022-08-10T17:19:47.754Z,16.82
2022-08-10T17:22:18.990Z,17.29
2022-08-10T17:24:49.618Z,16.88
2022-08-10T17:28:04.671Z,17.21
2022-08-10T17:30:16.185Z,16.72
2022-08-10T17:33:02.044Z,17.02
2022-08-10T17:35:36.219Z,16.76
2022-08-10T17:38:08.417Z,16.97
2022-08-10T17:40:45.206Z,16.88
2022-08-10T17:43:15.080Z,16.88
2022-08-10T17:46:05.216Z,17.00
2022-08-10T17:48:37.244Z,16.81
2022-08-10T17:51:12.531Z,16.74
2022-08-10T17:53:43.111Z,16.93
2022-08-10T17:56:13.403Z,17.00
2022-08-10T17:58:47.851Z,17.02
2022-08-10T18:01:41.644Z,17.42
2022-08-10T18:04:15.034Z,17.81
2022-08-10T18:06:48.017Z,18.20
2022-08-10T18:09:27.040Z,18.22
2022-08-10T18:12:02.338Z,18.80
2022-08-10T18:14:40.384Z,19.12
2022-08-10T22:16:36.007Z,33.07
2022-08-10T22:19:18.506Z,33.23
2022-08-10T22:22:07.051Z,33.56
2022-08-10T22:25:16.730Z,33.76
2022-08-10T22:27:59.983Z,34.18
2022-08-10T22:31:14.964Z,33.77
2022-08-10T22:33:56.864Z,33.89
2022-08-10T22:36:59.988Z,34.16
2022-08-10T22:40:11.701Z,33.82
2022-08-10T22:42:58.417Z,34.57
2022-08-10T22:45:54.087Z,35.06
2022-08-10T22:48:36.290Z,35.19
2022-08-10T22:51:30.881Z,35.67
2022-08-10T22:54:30.530Z,35.63
2022-08-10T22:57:22.861Z,35.67
2022-08-10T22:59:53.602Z,35.63
2022-08-10T23:02:30.784Z,35.81
2022-08-10T23:05:04.840Z,36.29
2022-08-10T23:07:38.385Z,36.10
2022-08-10T23:10:09.232Z,36.36
2022-08-10T23:12:40.546Z,36.64
2022-08-10T23:15:29.917Z,36.62
2022-08-10T23:18:12.188Z,36.51
2022-08-10T23:20:42.676Z,36.86
2022-08-10T23:23:24.096Z,36.53
2022-08-10T23:25:57.164Z,36.68
2022-08-10T23:28:38.268Z,36.04
2022-08-10T23:31:12.669Z,36.67
2022-08-10T23:33:42.733Z,36.58
2022-08-10T23:36:33.546Z,37.04
2022-08-10T23:39:27.033Z,37.98
2022-08-10T23:42:03.067Z,37.96
2022-08-10T23:44:36.521Z,37.88
2022-08-10T23:47:06.360Z,38.56
2022-08-10T23:49:37.102Z,38.73
2022-08-10T23:52:13.669Z,38.62
2022-08-10T23:54:50.532Z,38.57
2022-08-10T23:57:21.355Z,38.55
2022-08-10T23:59:55.542Z,38.21
